Time;durP1;ratioP1;P1;durP2;ratioP2;P2;SDS_P1;SDS_P2;PMS_P1;PMS_P2;Temp;Humidity;BMP_temperature;BMP_pressure;BME280_temperature;BME280_humidity;BME280_pressure;Samples;Min_cycle;Max_cycle;Signal;HPM_P1;HPM_P2
2022/11/04 00:01:07;;;;;;;18.57;16.27;;;13.10;99.90;;;;;;6154590;29;20792;-60
2022/11/04 00:04:12;;;;;;;20.37;16.10;;;13.10;99.90;;;;;;6154233;28;20482;-60
2022/11/04 00:13:57;;;;;;;24.37;18.10;;;13.10;99.90;;;;;;6154067;28;20803;-60
2022/11/04 00:17:20;;;;;;;18.93;16.57;;;13.10;99.90;;;;;;6152463;29;20522;-60
2022/11/04 00:30:28;;;;;;;20.70;17.20;;;13.10;99.90;;;;;;6130551;28;20484;-60
2022/11/04 00:33:30;;;;;;;21.37;17.63;;;13.10;99.90;;;;;;6128535;28;20954;-61
2022/11/04 00:36:33;;;;;;;18.77;16.87;;;13.10;99.90;;;;;;6130057;28;20548;-61
2022/11/04 00:39:38;;;;;;;21.43;18.70;;;13.10;99.90;;;;;;6129054;28;20506;-61
2022/11/04 00:42:44;;;;;;;22.93;18.57;;;13.20;99.90;;;;;;6130166;28;20471;-61
2022/11/04 00:45:47;;;;;;;23.93;18.47;;;13.20;99.90;;;;;;6134818;28;20451;-61
2022/11/04 00:48:50;;;;;;;22.40;19.10;;;13.20;99.90;;;;;;6139711;28;20954;-61
2022/11/04 00:51:53;;;;;;;18.97;16.97;;;13.20;99.90;;;;;;6140109;28;20478;-61
2022/11/04 00:54:57;;;;;;;20.57;18.27;;;13.20;99.90;;;;;;6137305;28;20533;-61
2022/11/04 00:58:01;;;;;;;20.37;18.00;;;13.20;99.90;;;;;;6142461;28;20462;-60
2022/11/04 01:01:08;;;;;;;19.03;17.03;;;13.20;99.90;;;;;;6140381;28;20529;-61
2022/11/04 01:04:12;;;;;;;18.87;16.87;;;13.20;99.90;;;;;;6142552;28;20537;-60
2022/11/04 01:07:15;;;;;;;18.37;16.47;;;13.30;99.90;;;;;;6138052;29;20474;-61
2022/11/04 01:10:19;;;;;;;21.33;18.07;;;13.30;99.90;;;;;;6142495;28;20471;-60
2022/11/04 01:13:22;;;;;;;21.70;18.03;;;13.30;99.90;;;;;;6141169;28;20541;-60
2022/11/04 01:16:27;;;;;;;19.83;17.83;;;13.20;99.90;;;;;;6143159;29;20486;-60
2022/11/04 01:19:35;;;;;;;19.30;17.17;;;13.30;99.90;;;;;;6144932;29;20490;-60
2022/11/04 01:22:38;;;;;;;22.40;20.00;;;13.30;99.90;;;;;;6153555;28;20474;-61
2022/11/04 01:25:42;;;;;;;23.73;18.87;;;13.30;99.90;;;;;;6153173;29;20479;-61
2022/11/04 01:28:46;;;;;;;20.30;18.10;;;13.30;99.90;;;;;;6153438;29;20781;-61
2022/11/04 01:31:50;;;;;;;22.53;20.17;;;13.30;99.90;;;;;;6153097;28;20487;-61
2022/11/04 01:34:53;;;;;;;21.70;19.53;;;13.30;99.90;;;;;;6153107;29;20545;-61
2022/11/04 01:37:57;;;;;;;20.33;18.20;;;13.20;99.90;;;;;;6153162;28;20501;-61
2022/11/04 01:41:03;;;;;;;25.23;20.50;;;13.30;99.90;;;;;;6153277;29;20470;-61
2022/11/04 01:44:39;;;;;;;21.10;17.43;;;13.30;99.90;;;;;;6152916;28;20935;-61
2022/11/04 01:47:44;;;;;;;21.47;19.17;;;13.30;99.90;;;;;;6153139;29;20571;-60
2022/11/04 01:50:50;;;;;;;18.63;16.73;;;13.30;99.90;;;;;;6152726;28;20977;-61
2022/11/04 01:53:56;;;;;;;24.13;20.30;;;13.30;99.90;;;;;;6152886;28;20479;-61
2022/11/04 01:57:02;;;;;;;21.97;18.53;;;13.30;99.90;;;;;;6152473;29;20545;-61
2022/11/04 02:00:09;;;;;;;19.13;17.13;;;13.40;99.90;;;;;;6152811;29;20490;-61
2022/11/04 02:03:16;;;;;;;24.33;17.83;;;13.40;99.90;;;;;;6152076;28;20486;-61
2022/11/04 02:06:19;;;;;;;22.40;19.80;;;13.40;99.90;;;;;;6152834;29;21009;-61
2022/11/04 02:09:25;;;;;;;19.37;17.30;;;13.40;99.90;;;;;;6152057;29;20482;-60
2022/11/04 02:15:57;;;;;;;18.73;16.70;;;13.40;99.90;;;;;;6152264;28;20459;-60
2022/11/04 02:19:11;;;;;;;20.73;18.57;;;13.50;99.90;;;;;;6152511;29;20550;-61
2022/11/04 02:22:45;;;;;;;20.43;18.33;;;13.40;99.90;;;;;;6151821;28;20479;-61
2022/11/04 02:26:22;;;;;;;23.77;19.57;;;13.40;99.90;;;;;;6152437;29;20473;-61
2022/11/04 02:29:54;;;;;;;21.47;19.17;;;13.40;99.90;;;;;;6130932;29;20479;-61
2022/11/04 02:33:08;;;;;;;19.80;17.70;;;13.50;99.90;;;;;;6152097;28;20491;-61
2022/11/04 02:36:23;;;;;;;21.47;17.43;;;13.50;99.90;;;;;;6152122;29;20475;-61
2022/11/04 02:39:36;;;;;;;20.80;18.80;;;13.50;99.90;;;;;;6152260;29;20542;-62
2022/11/04 02:42:45;;;;;;;20.00;17.90;;;13.50;99.90;;;;;;6151776;28;20498;-61
2022/11/04 02:45:52;;;;;;;25.47;18.10;;;13.50;99.90;;;;;;6153650;29;20431;-61
2022/11/04 02:49:00;;;;;;;20.57;18.50;;;13.40;99.90;;;;;;6150592;29;20467;-61
2022/11/04 02:52:06;;;;;;;25.47;19.60;;;13.40;99.90;;;;;;6128825;28;20486;-61
2022/11/04 02:55:16;;;;;;;23.77;20.30;;;13.40;99.90;;;;;;6128076;28;20468;-61
2022/11/04 02:58:24;;;;;;;21.67;19.40;;;13.30;99.90;;;;;;6128079;28;20773;-62
2022/11/04 03:01:34;;;;;;;22.27;17.37;;;13.40;99.90;;;;;;6128307;28;20982;-61
2022/11/04 03:04:40;;;;;;;22.57;20.20;;;13.40;99.90;;;;;;6128586;29;20480;-61
2022/11/04 03:07:46;;;;;;;21.83;19.60;;;13.40;99.90;;;;;;6128389;28;20495;-62
2022/11/04 03:10:53;;;;;;;24.03;18.90;;;13.50;99.90;;;;;;6128525;28;20487;-62
2022/11/04 03:14:03;;;;;;;21.90;18.97;;;13.50;99.90;;;;;;6128849;28;20559;-61
2022/11/04 03:17:15;;;;;;;20.63;18.40;;;13.50;99.90;;;;;;6132843;28;20471;-61
2022/11/04 03:20:21;;;;;;;23.13;20.93;;;13.50;99.90;;;;;;6132328;28;20475;-61
2022/11/04 03:23:24;;;;;;;21.50;19.40;;;13.50;99.90;;;;;;6132116;28;20580;-61
2022/11/04 03:26:32;;;;;;;23.10;20.90;;;13.50;99.90;;;;;;6132399;28;20574;-61
2022/11/04 03:29:39;;;;;;;23.00;20.50;;;13.50;99.90;;;;;;6132370;28;20522;-61
2022/11/04 03:32:49;;;;;;;23.60;20.10;;;13.50;99.90;;;;;;6131984;28;20484;-61
2022/11/04 03:35:52;;;;;;;23.23;20.60;;;13.50;99.90;;;;;;6132242;28;20539;-61
2022/11/04 03:38:55;;;;;;;21.93;19.80;;;13.50;99.90;;;;;;6131855;28;20494;-61
2022/11/04 03:42:18;;;;;;;25.27;20.87;;;13.60;99.90;;;;;;6108074;29;20476;-61
2022/11/04 03:45:23;;;;;;;24.07;20.27;;;13.60;99.90;;;;;;6108146;29;20620;-61
2022/11/04 03:48:27;;;;;;;26.50;21.07;;;13.50;99.90;;;;;;6108121;29;20776;-61
2022/11/04 03:51:30;;;;;;;21.10;18.90;;;13.50;99.90;;;;;;6107975;29;20484;-61
2022/11/04 03:54:35;;;;;;;21.70;19.40;;;13.50;99.90;;;;;;6108153;29;20749;-61
2022/11/04 03:57:46;;;;;;;22.03;19.73;;;13.50;99.90;;;;;;6108370;29;20870;-61
2022/11/04 04:00:55;;;;;;;22.73;19.67;;;13.50;99.90;;;;;;6107745;29;20449;-61
2022/11/04 04:04:03;;;;;;;20.87;18.50;;;13.50;99.90;;;;;;6107643;29;20468;-61
2022/11/04 04:07:15;;;;;;;22.47;20.20;;;13.50;99.90;;;;;;6107970;29;20481;-61
2022/11/04 04:10:41;;;;;;;24.40;20.13;;;13.50;99.90;;;;;;6107579;29;20536;-61
2022/11/04 04:13:51;;;;;;;22.87;20.47;;;13.50;99.90;;;;;;6105591;29;20481;-61
2022/11/04 04:16:57;;;;;;;23.07;20.43;;;13.50;99.90;;;;;;6106104;29;20499;-61
2022/11/04 04:20:04;;;;;;;25.23;20.87;;;13.50;99.90;;;;;;6106071;29;20472;-61
2022/11/04 04:29:52;;;;;;;20.87;18.70;;;13.50;99.90;;;;;;6107104;29;20492;-61
2022/11/04 04:33:00;;;;;;;21.97;19.10;;;13.50;99.90;;;;;;6106300;29;20492;-61
2022/11/04 04:36:09;;;;;;;24.10;21.40;;;13.50;99.90;;;;;;6107209;29;20492;-61
2022/11/04 04:45:57;;;;;;;22.50;20.17;;;13.50;99.90;;;;;;6106966;29;20473;-61
2022/11/04 04:49:05;;;;;;;25.43;22.47;;;13.50;99.90;;;;;;6106914;29;20772;-61
2022/11/04 04:52:10;;;;;;;23.07;20.77;;;13.50;99.90;;;;;;6106474;28;20544;-61
2022/11/04 04:55:14;;;;;;;22.10;19.63;;;13.50;99.90;;;;;;6108071;29;20481;-61
2022/11/04 04:58:17;;;;;;;22.07;19.77;;;13.60;99.90;;;;;;6106916;29;20812;-61
2022/11/04 05:01:20;;;;;;;25.90;20.80;;;13.60;99.90;;;;;;6106413;29;20845;-61
2022/11/04 05:04:23;;;;;;;25.07;22.37;;;13.60;99.90;;;;;;6106329;29;20477;-61
2022/11/04 05:07:28;;;;;;;27.07;22.60;;;13.70;99.90;;;;;;6106055;29;20476;-60
2022/11/04 05:10:31;;;;;;;24.53;22.00;;;13.70;99.90;;;;;;6106500;28;20521;-60
2022/11/04 05:13:34;;;;;;;24.20;21.60;;;13.60;99.90;;;;;;6106435;29;20480;-61
2022/11/04 05:16:37;;;;;;;26.37;22.00;;;13.70;99.90;;;;;;6106373;29;20477;-61
2022/11/04 05:19:43;;;;;;;20.87;18.67;;;13.70;99.90;;;;;;6106016;29;20806;-61
2022/11/04 05:22:47;;;;;;;23.23;20.70;;;13.70;99.90;;;;;;6105747;29;20480;-62
2022/11/04 05:25:50;;;;;;;21.93;19.70;;;13.70;99.90;;;;;;6105744;29;20477;-61
2022/11/04 05:28:53;;;;;;;23.33;20.83;;;13.70;99.90;;;;;;6106030;29;20968;-61
2022/11/04 05:31:57;;;;;;;23.40;20.57;;;13.70;99.90;;;;;;6105820;29;20488;-62
2022/11/04 05:35:00;;;;;;;24.57;22.07;;;13.70;99.90;;;;;;6105953;28;20854;-61
2022/11/04 05:38:05;;;;;;;22.67;20.13;;;13.70;99.90;;;;;;6105445;29;20476;-61
2022/11/04 05:41:09;;;;;;;22.83;20.50;;;13.70;99.90;;;;;;6105878;29;20497;-61
2022/11/04 05:44:14;;;;;;;23.33;20.20;;;13.70;99.90;;;;;;6105972;29;20476;-61
2022/11/04 05:47:17;;;;;;;23.83;20.90;;;13.70;99.90;;;;;;6107254;29;20615;-61
2022/11/04 05:50:20;;;;;;;21.70;19.33;;;13.70;99.90;;;;;;6105605;29;20777;-60
2022/11/04 05:53:25;;;;;;;23.00;20.60;;;13.70;99.90;;;;;;6104422;29;20476;-60
2022/11/04 05:56:29;;;;;;;21.13;18.97;;;13.70;99.90;;;;;;6105167;29;20499;-61
2022/11/04 05:59:32;;;;;;;22.23;19.97;;;13.80;99.90;;;;;;6105692;29;20948;-61
2022/11/04 06:02:35;;;;;;;21.23;19.03;;;13.80;99.90;;;;;;6105751;29;20480;-61
2022/11/04 06:05:38;;;;;;;20.77;18.53;;;13.80;99.90;;;;;;6145369;28;20815;-61
2022/11/04 06:08:43;;;;;;;22.07;19.77;;;13.80;99.90;;;;;;6147554;28;20509;-61
2022/11/04 06:11:47;;;;;;;20.80;18.70;;;13.90;99.90;;;;;;6152781;28;20512;-61
2022/11/04 06:14:50;;;;;;;23.47;21.07;;;13.90;99.90;;;;;;6153056;28;20478;-61
2022/11/04 06:17:53;;;;;;;20.37;18.10;;;13.90;99.90;;;;;;6152682;28;20479;-61
2022/11/04 06:21:08;;;;;;;23.20;18.73;;;13.90;99.90;;;;;;6152084;28;20949;-61
2022/11/04 06:24:12;;;;;;;23.23;20.30;;;13.90;99.90;;;;;;6151980;28;20483;-60
2022/11/04 06:27:16;;;;;;;23.33;19.60;;;13.90;99.90;;;;;;6152492;28;20816;-60
2022/11/04 06:30:19;;;;;;;24.80;22.10;;;13.90;99.90;;;;;;6152304;28;20554;-61
2022/11/04 06:33:22;;;;;;;24.20;21.70;;;13.80;99.90;;;;;;6151545;28;20482;-62
2022/11/04 06:36:25;;;;;;;25.47;22.93;;;13.70;99.90;;;;;;6151898;28;20772;-61
2022/11/04 06:39:30;;;;;;;24.57;20.97;;;13.70;99.90;;;;;;6147848;28;20612;-61
2022/11/04 06:42:33;;;;;;;26.40;22.87;;;13.70;99.90;;;;;;6139071;29;20811;-61
2022/11/04 06:45:36;;;;;;;23.60;21.07;;;13.70;99.90;;;;;;6151394;28;20545;-60
2022/11/04 06:48:39;;;;;;;24.83;22.23;;;13.70;99.90;;;;;;6153295;28;20469;-61
2022/11/04 06:51:42;;;;;;;26.40;23.40;;;13.80;99.90;;;;;;6155589;28;20451;-61
2022/11/04 06:54:47;;;;;;;25.60;22.90;;;13.90;99.90;;;;;;6156897;28;20774;-61
2022/11/04 06:57:50;;;;;;;22.90;20.50;;;13.90;99.90;;;;;;6156590;28;20447;-61
2022/11/04 07:00:53;;;;;;;22.93;20.53;;;13.90;99.90;;;;;;6156839;28;20509;-62
2022/11/04 07:03:58;;;;;;;28.40;22.60;;;13.70;99.90;;;;;;6156967;28;20470;-61
2022/11/04 07:07:01;;;;;;;28.37;20.57;;;13.80;99.90;;;;;;6157941;28;20537;-61
2022/11/04 07:10:07;;;;;;;23.20;21.00;;;13.80;99.90;;;;;;6157010;28;20481;-62
2022/11/04 07:13:10;;;;;;;25.43;21.30;;;13.80;99.90;;;;;;6156285;28;20945;-61
2022/11/04 07:16:14;;;;;;;25.57;21.37;;;13.80;99.90;;;;;;6156444;28;20485;-60
2022/11/04 07:19:17;;;;;;;22.40;20.10;;;13.90;99.90;;;;;;6156102;28;20473;-60
2022/11/04 07:22:21;;;;;;;24.07;21.50;;;14.00;99.90;;;;;;6155815;28;20989;-61
2022/11/04 07:25:25;;;;;;;21.93;19.53;;;14.00;99.90;;;;;;6156055;28;20490;-60
2022/11/04 07:28:28;;;;;;;23.40;21.20;;;14.00;99.90;;;;;;6156097;28;21026;-61
2022/11/04 07:31:32;;;;;;;24.07;21.63;;;14.10;99.90;;;;;;6156714;28;20475;-61
2022/11/04 07:34:36;;;;;;;22.87;20.50;;;14.10;99.90;;;;;;6156285;28;20462;-61
2022/11/04 07:37:39;;;;;;;24.00;21.50;;;14.20;99.90;;;;;;6155990;28;20497;-62
2022/11/04 07:40:43;;;;;;;25.47;23.03;;;14.20;99.90;;;;;;6155458;28;20820;-62
2022/11/04 07:43:50;;;;;;;23.87;20.40;;;14.20;99.90;;;;;;6162482;28;20485;-61
2022/11/04 07:46:53;;;;;;;23.40;21.10;;;14.30;99.90;;;;;;6159547;28;20478;-61
2022/11/04 07:49:57;;;;;;;23.97;21.60;;;14.20;99.90;;;;;;6156450;28;20486;-61
2022/11/04 07:53:00;;;;;;;23.27;19.70;;;14.30;99.90;;;;;;6156232;28;20479;-61
2022/11/04 07:56:07;;;;;;;20.80;18.60;;;14.20;99.90;;;;;;6155986;28;20534;-61
2022/11/04 07:59:10;;;;;;;22.43;18.50;;;14.30;99.90;;;;;;6155709;28;20485;-61
2022/11/04 08:02:14;;;;;;;19.93;18.00;;;14.20;99.90;;;;;;6154551;28;20997;-61
2022/11/04 08:05:22;;;;;;;18.77;16.97;;;14.20;99.90;;;;;;6135143;29;20479;-61
2022/11/04 08:08:26;;;;;;;18.73;16.90;;;14.10;99.90;;;;;;6142401;29;20475;-61
2022/11/04 08:11:31;;;;;;;18.83;16.83;;;14.10;99.90;;;;;;6140791;28;20471;-63
2022/11/04 08:14:34;;;;;;;19.67;17.70;;;14.10;99.90;;;;;;6137507;28;20804;-63
2022/11/04 08:17:37;;;;;;;18.83;16.97;;;14.10;99.90;;;;;;6143397;29;20494;-63
2022/11/04 08:20:40;;;;;;;19.33;17.50;;;14.10;99.90;;;;;;6149437;28;20479;-63
2022/11/04 08:23:44;;;;;;;18.40;16.50;;;14.10;99.90;;;;;;6140698;28;20838;-63
2022/11/04 08:26:49;;;;;;;23.10;18.20;;;14.10;99.90;;;;;;6140979;28;20474;-63
2022/11/04 08:29:53;;;;;;;18.53;16.67;;;14.10;99.90;;;;;;6134581;29;20808;-63
2022/11/04 08:32:56;;;;;;;19.80;16.30;;;14.00;99.90;;;;;;6138390;29;20819;-63
2022/11/04 08:36:01;;;;;;;21.00;16.97;;;14.00;99.90;;;;;;6141336;29;20467;-63
2022/11/04 08:39:06;;;;;;;20.27;18.10;;;14.10;99.90;;;;;;6138555;28;20527;-62
2022/11/04 08:42:14;;;;;;;18.37;16.43;;;14.10;99.90;;;;;;6142553;28;20489;-63
2022/11/04 08:45:17;;;;;;;20.57;18.30;;;14.00;99.90;;;;;;6147016;29;20529;-63
2022/11/04 08:48:21;;;;;;;17.17;15.43;;;13.90;99.90;;;;;;6140149;29;20472;-63
2022/11/04 08:51:26;;;;;;;18.07;16.30;;;14.00;99.90;;;;;;6147659;28;20483;-63
2022/11/04 08:54:29;;;;;;;19.60;17.57;;;14.10;99.90;;;;;;6149914;28;21162;-63
2022/11/04 08:57:34;;;;;;;17.77;15.97;;;14.10;99.90;;;;;;6154686;28;20483;-63
2022/11/04 09:00:37;;;;;;;18.63;16.63;;;14.20;99.90;;;;;;6154815;28;20557;-62
2022/11/04 09:03:41;;;;;;;18.20;16.37;;;14.10;99.90;;;;;;6153825;28;20470;-61
2022/11/04 09:06:45;;;;;;;17.20;15.40;;;14.10;99.90;;;;;;6153943;28;20610;-61
2022/11/04 09:09:48;;;;;;;16.77;15.10;;;14.20;99.90;;;;;;6154221;28;20464;-61
2022/11/04 09:12:53;;;;;;;16.13;14.57;;;14.20;99.90;;;;;;6152774;28;20947;-65
2022/11/04 09:15:56;;;;;;;15.90;14.03;;;14.20;99.90;;;;;;6153927;28;20451;-65
2022/11/04 09:19:01;;;;;;;17.10;15.33;;;14.10;99.90;;;;;;6153788;28;20470;-65
2022/11/04 09:22:04;;;;;;;16.27;14.57;;;13.90;99.90;;;;;;6153779;28;20486;-65
2022/11/04 09:25:08;;;;;;;17.07;15.30;;;14.00;99.90;;;;;;6153716;28;20489;-65
2022/11/04 09:28:12;;;;;;;15.73;14.17;;;14.10;99.90;;;;;;6153611;28;20463;-65
2022/11/04 09:31:18;;;;;;;14.50;13.10;;;14.10;99.90;;;;;;6154802;28;20839;-65
2022/11/04 09:34:21;;;;;;;16.43;14.53;;;14.10;99.90;;;;;;6156211;28;20568;-65
2022/11/04 09:37:24;;;;;;;16.13;14.10;;;14.20;99.90;;;;;;6153504;28;20850;-66
2022/11/04 09:40:28;;;;;;;15.10;13.50;;;14.10;99.90;;;;;;6153895;28;20474;-65
2022/11/04 09:43:46;;;;;;;16.17;13.60;;;14.10;99.90;;;;;;6154107;28;20494;-65
2022/11/04 09:46:50;;;;;;;16.67;14.93;;;14.00;99.90;;;;;;6153682;28;20963;-65
2022/11/04 09:49:57;;;;;;;15.97;14.37;;;14.10;99.90;;;;;;6154659;28;20922;-63
2022/11/04 09:53:06;;;;;;;16.13;14.73;;;14.10;99.90;;;;;;6154121;28;20479;-63
2022/11/04 09:56:16;;;;;;;16.37;14.70;;;14.10;99.90;;;;;;6144450;29;20479;-63
2022/11/04 09:59:28;;;;;;;18.37;15.50;;;14.20;99.90;;;;;;6136741;28;20466;-63
2022/11/04 10:02:46;;;;;;;16.43;14.40;;;14.20;99.90;;;;;;6141135;28;20561;-62
2022/11/04 10:06:02;;;;;;;19.47;17.57;;;14.20;99.90;;;;;;6138215;28;20476;-63
2022/11/04 10:09:17;;;;;;;18.47;16.67;;;14.20;99.90;;;;;;6141520;28;20471;-63
2022/11/04 10:12:36;;;;;;;18.97;16.97;;;14.20;99.90;;;;;;6135501;29;20484;-60
2022/11/04 10:15:54;;;;;;;19.00;17.10;;;14.10;99.90;;;;;;6132466;28;20978;-61
2022/11/04 10:19:38;;;;;;;18.63;16.70;;;14.00;99.90;;;;;;6135987;28;20435;-61
2022/11/04 10:22:55;;;;;;;19.03;17.13;;;13.80;99.90;;;;;;6152698;28;20482;-61
2022/11/04 10:26:03;;;;;;;19.30;17.50;;;13.80;99.90;;;;;;6106036;29;20481;-62
2022/11/04 10:29:13;;;;;;;21.43;19.33;;;13.70;99.90;;;;;;6105235;29;20488;-61
2022/11/04 10:32:21;;;;;;;18.67;16.67;;;13.70;99.90;;;;;;6128651;28;20474;-62
2022/11/04 10:35:31;;;;;;;20.90;18.70;;;13.60;99.90;;;;;;6152556;28;20479;-62
2022/11/04 10:38:40;;;;;;;21.60;19.50;;;13.60;99.90;;;;;;6142777;28;20478;-62
2022/11/04 10:41:44;;;;;;;21.80;19.73;;;13.50;99.90;;;;;;6141255;28;20479;-62
2022/11/04 10:44:50;;;;;;;20.23;18.27;;;13.50;99.90;;;;;;6138778;28;20797;-61
2022/11/04 10:48:00;;;;;;;20.90;18.27;;;13.50;99.90;;;;;;6135458;29;20489;-60
2022/11/04 10:51:04;;;;;;;21.33;18.37;;;13.50;99.90;;;;;;6141130;28;20475;-60
2022/11/04 10:54:10;;;;;;;18.90;16.80;;;13.50;99.90;;;;;;6147556;28;20575;-60
2022/11/04 10:57:20;;;;;;;21.87;19.57;;;13.50;99.90;;;;;;6150743;28;20481;-60
2022/11/04 11:00:38;;;;;;;18.00;16.13;;;13.60;99.90;;;;;;6150625;28;20505;-61
2022/11/04 11:03:43;;;;;;;17.87;16.20;;;13.50;99.90;;;;;;6150099;28;20470;-61
2022/11/04 11:06:50;;;;;;;18.07;16.27;;;13.50;99.90;;;;;;6145706;28;20447;-61
2022/11/04 11:09:56;;;;;;;18.67;16.87;;;13.50;99.90;;;;;;6151495;28;20546;-60
2022/11/04 11:13:02;;;;;;;18.50;16.60;;;13.50;99.90;;;;;;6151834;28;20497;-60
2022/11/04 11:16:11;;;;;;;17.50;15.70;;;13.40;99.90;;;;;;6150042;29;20500;-60
2022/11/04 11:19:19;;;;;;;18.43;16.63;;;13.50;99.90;;;;;;6151991;29;20475;-60
2022/11/04 11:22:34;;;;;;;17.53;15.80;;;13.40;99.90;;;;;;6152357;28;20549;-60
2022/11/04 11:25:44;;;;;;;16.20;14.60;;;13.50;99.90;;;;;;6104815;29;20800;-60
2022/11/04 11:28:55;;;;;;;20.50;16.93;;;13.60;99.90;;;;;;6104583;29;20572;-60
2022/11/04 11:32:01;;;;;;;20.17;18.07;;;13.60;99.90;;;;;;6104598;29;20492;-62
2022/11/04 11:35:16;;;;;;;16.50;14.93;;;13.40;99.90;;;;;;6105337;29;20488;-61
2022/11/04 11:38:23;;;;;;;16.50;14.80;;;13.40;99.90;;;;;;6108612;29;20838;-61
2022/11/04 11:41:31;;;;;;;19.63;17.53;;;13.40;99.90;;;;;;6109462;29;20479;-63
2022/11/04 11:44:37;;;;;;;17.83;16.00;;;13.40;99.90;;;;;;6143038;28;20482;-61
2022/11/04 11:47:42;;;;;;;19.47;16.40;;;13.40;99.90;;;;;;6158016;29;20514;-62
2022/11/04 11:50:56;;;;;;;18.93;15.23;;;13.40;99.90;;;;;;6145829;29;20801;-66
2022/11/04 11:54:32;;;;;;;19.50;16.60;;;13.50;99.90;;;;;;6132179;29;20459;-61
2022/11/04 11:57:44;;;;;;;19.97;16.80;;;13.50;99.90;;;;;;6132234;29;20471;-61
2022/11/04 12:01:13;;;;;;;16.80;15.10;;;13.60;99.90;;;;;;6131758;29;20811;-61
2022/11/04 12:04:26;;;;;;;19.33;17.30;;;13.70;99.90;;;;;;6138997;29;20831;-61
2022/11/04 12:07:57;;;;;;;19.27;17.30;;;13.80;99.90;;;;;;6131636;29;20557;-61
2022/11/04 12:11:27;;;;;;;18.87;16.90;;;13.80;99.90;;;;;;6136383;29;20484;-60
2022/11/04 12:14:47;;;;;;;18.97;17.00;;;13.80;99.90;;;;;;6147218;28;20972;-61
2022/11/04 12:18:03;;;;;;;18.17;16.20;;;13.80;99.90;;;;;;6140858;29;20791;-58
2022/11/04 12:21:14;;;;;;;19.20;17.23;;;13.80;99.90;;;;;;6155159;28;20498;-60
2022/11/04 12:24:30;;;;;;;20.53;18.50;;;13.80;99.90;;;;;;6140814;28;20488;-60
2022/11/04 12:27:41;;;;;;;17.80;16.00;;;13.80;99.90;;;;;;6131331;29;20482;-60
2022/11/04 12:30:54;;;;;;;17.60;15.77;;;13.80;99.90;;;;;;6130976;28;20416;-59
2022/11/04 12:34:08;;;;;;;18.47;16.40;;;13.80;99.90;;;;;;6130584;29;20491;-60
2022/11/04 12:37:20;;;;;;;18.23;15.90;;;13.80;99.90;;;;;;6130513;29;20527;-61
2022/11/04 12:40:28;;;;;;;17.70;15.80;;;13.90;99.90;;;;;;6130880;29;20484;-60
2022/11/04 12:43:40;;;;;;;18.93;16.60;;;13.80;99.90;;;;;;6130544;29;20499;-59
2022/11/04 12:46:49;;;;;;;17.27;15.53;;;13.80;99.90;;;;;;6130575;29;21038;-60
2022/11/04 12:50:17;;;;;;;18.40;16.50;;;13.80;99.90;;;;;;6130680;29;20472;-60
2022/11/04 12:53:51;;;;;;;19.00;15.67;;;13.80;99.90;;;;;;6130359;29;20483;-61
2022/11/04 12:57:12;;;;;;;18.27;16.20;;;13.90;99.90;;;;;;6128913;28;20867;-59
2022/11/04 13:00:20;;;;;;;16.97;15.17;;;13.70;99.90;;;;;;6130824;29;20480;-60
2022/11/04 13:03:30;;;;;;;17.00;15.30;;;13.80;99.90;;;;;;6130398;29;20482;-59
2022/11/04 13:06:37;;;;;;;21.70;16.10;;;13.70;99.90;;;;;;6130453;29;21030;-60
2022/11/04 13:09:45;;;;;;;16.97;15.07;;;13.70;99.90;;;;;;6130723;28;20444;-59
2022/11/04 13:12:52;;;;;;;19.87;17.67;;;13.70;99.90;;;;;;6129923;29;20502;-59
2022/11/04 13:15:58;;;;;;;19.50;15.03;;;13.70;99.90;;;;;;6139754;29;20455;-59
2022/11/04 13:19:01;;;;;;;16.80;15.20;;;13.70;99.90;;;;;;6129046;28;20946;-59
2022/11/04 13:22:10;;;;;;;16.20;14.30;;;13.70;99.90;;;;;;6129668;29;20526;-61
2022/11/04 13:25:19;;;;;;;20.87;17.03;;;13.70;99.90;;;;;;6129039;29;20476;-60
2022/11/04 13:28:24;;;;;;;17.23;15.47;;;13.70;99.90;;;;;;6130026;29;20493;-59
2022/11/04 13:31:35;;;;;;;17.17;15.37;;;13.60;99.90;;;;;;6142751;28;20474;-59
2022/11/04 13:34:47;;;;;;;18.37;16.53;;;13.50;99.90;;;;;;6153468;28;20490;-60
2022/11/04 13:37:57;;;;;;;15.93;14.30;;;13.60;99.90;;;;;;6153865;28;20475;-60
2022/11/04 13:41:16;;;;;;;17.90;15.73;;;13.60;99.90;;;;;;6154253;28;20490;-60
2022/11/04 13:44:28;;;;;;;17.23;15.40;;;13.70;99.90;;;;;;6145149;28;20817;-59
2022/11/04 13:47:36;;;;;;;19.13;14.87;;;13.70;99.90;;;;;;6151275;28;20478;-61
2022/11/04 13:50:40;;;;;;;16.13;14.40;;;13.70;99.90;;;;;;6143660;29;20479;-59
2022/11/04 13:53:47;;;;;;;19.33;15.17;;;13.70;99.90;;;;;;6143329;29;20483;-60
2022/11/04 13:56:50;;;;;;;16.40;14.70;;;13.60;99.90;;;;;;6143849;28;20542;-60
2022/11/04 14:00:19;;;;;;;13.03;11.83;;;13.60;99.90;;;;;;6139347;29;20497;-60
2022/11/04 14:03:52;;;;;;;7.70;6.57;;;13.60;99.90;;;;;;6139387;28;20486;-59
2022/11/04 14:06:58;;;;;;;4.87;4.40;;;13.50;99.90;;;;;;6148713;28;20450;-60
2022/11/04 14:10:02;;;;;;;3.33;3.03;;;13.50;99.90;;;;;;6153254;28;20483;-59
2022/11/04 14:13:41;;;;;;;3.07;2.77;;;13.50;99.90;;;;;;6150757;28;20474;-59
2022/11/04 14:16:46;;;;;;;1.80;1.40;;;13.40;99.90;;;;;;6151743;29;20475;-59
2022/11/04 14:19:58;;;;;;;4.43;1.67;;;13.40;99.90;;;;;;6130417;29;20472;-60
2022/11/04 14:23:03;;;;;;;1.47;1.20;;;13.20;99.90;;;;;;6128999;29;21873;-60
2022/11/04 14:26:09;;;;;;;1.00;0.80;;;13.00;99.90;;;;;;6136380;29;20994;-60
2022/11/04 14:29:18;;;;;;;1.10;0.63;;;12.70;99.90;;;;;;6140694;29;20482;-60
2022/11/04 14:32:30;;;;;;;0.97;0.70;;;12.60;99.90;;;;;;6135579;29;20506;-60
2022/11/04 14:35:34;;;;;;;0.50;0.50;;;12.60;99.90;;;;;;6138404;28;20491;-60
2022/11/04 14:38:37;;;;;;;0.80;0.80;;;12.50;99.90;;;;;;6128874;29;20507;-59
2022/11/04 14:42:02;;;;;;;0.90;0.70;;;12.50;99.90;;;;;;6136195;28;20474;-59
2022/11/04 14:45:08;;;;;;;0.97;0.70;;;12.40;99.90;;;;;;6130482;28;20472;-59
2022/11/04 14:48:18;;;;;;;0.53;0.50;;;12.30;99.90;;;;;;6136625;29;20470;-59
2022/11/04 14:51:26;;;;;;;0.70;0.60;;;12.20;99.90;;;;;;6128113;28;20815;-59
2022/11/04 14:54:32;;;;;;;0.60;0.60;;;12.10;99.90;;;;;;6128332;29;20480;-59
2022/11/04 14:57:38;;;;;;;0.50;0.50;;;12.10;99.90;;;;;;6128247;29;20475;-59
2022/11/04 15:00:53;;;;;;;0.50;0.47;;;12.10;99.90;;;;;;6127941;29;20537;-59
2022/11/04 15:04:05;;;;;;;0.50;0.40;;;12.00;99.90;;;;;;6128076;29;20539;-60
2022/11/04 15:07:25;;;;;;;0.40;0.30;;;12.00;99.90;;;;;;6139438;28;20901;-59
2022/11/04 15:10:29;;;;;;;0.70;0.50;;;12.00;99.90;;;;;;6131709;28;20478;-60
2022/11/04 15:13:37;;;;;;;0.60;0.60;;;12.00;99.90;;;;;;6132704;28;20542;-59
2022/11/04 15:16:41;;;;;;;0.67;0.40;;;12.00;99.90;;;;;;6132296;29;20959;-59
2022/11/04 15:19:50;;;;;;;2.10;0.57;;;11.90;99.90;;;;;;6132837;29;20477;-59
2022/11/04 15:22:54;;;;;;;0.50;0.50;;;11.90;99.90;;;;;;6132296;29;20794;-60
2022/11/04 15:25:59;;;;;;;0.60;0.50;;;11.80;99.90;;;;;;6132729;29;20543;-59
2022/11/04 15:29:07;;;;;;;0.50;0.50;;;11.70;99.90;;;;;;6131909;28;20781;-60
2022/11/04 15:32:17;;;;;;;0.70;0.50;;;11.70;99.90;;;;;;6132161;29;20484;-60
2022/11/04 15:35:24;;;;;;;0.90;0.70;;;11.70;99.90;;;;;;6132514;29;20486;-60
2022/11/04 15:38:28;;;;;;;0.40;0.40;;;11.60;99.90;;;;;;6124079;29;20486;-61
2022/11/04 15:44:55;;;;;;;0.60;0.60;;;11.50;99.90;;;;;;6149668;29;20475;-59
2022/11/04 15:48:22;;;;;;;0.47;0.47;;;11.50;99.90;;;;;;6147654;28;20468;-61
2022/11/04 15:51:27;;;;;;;0.50;0.50;;;11.50;99.90;;;;;;6144737;28;20475;-59
2022/11/04 15:54:34;;;;;;;0.70;0.70;;;11.50;99.90;;;;;;6151876;28;20498;-59
2022/11/04 15:57:40;;;;;;;0.60;0.40;;;11.40;99.90;;;;;;6140153;29;20543;-60
2022/11/04 16:00:52;;;;;;;1.47;0.60;;;11.40;99.90;;;;;;6131895;28;20456;-59
2022/11/04 16:03:57;;;;;;;0.70;0.60;;;11.40;99.90;;;;;;6147250;28;20462;-59
2022/11/04 16:07:23;;;;;;;0.60;0.50;;;11.30;99.90;;;;;;6155802;28;20887;-59
2022/11/04 16:10:30;;;;;;;0.97;0.80;;;11.30;99.90;;;;;;6157095;28;20475;-59
2022/11/04 16:13:33;;;;;;;0.60;0.60;;;11.30;99.90;;;;;;6155349;28;20485;-59
2022/11/04 16:16:37;;;;;;;0.70;0.67;;;11.30;99.90;;;;;;6151465;28;20483;-60
2022/11/04 16:19:44;;;;;;;1.50;1.40;;;11.30;99.90;;;;;;6135918;29;20485;-60
2022/11/04 16:22:56;;;;;;;0.50;0.50;;;11.20;99.90;;;;;;6152789;28;20474;-59
2022/11/04 16:26:03;;;;;;;0.60;0.50;;;11.20;99.90;;;;;;6148857;28;20870;-60
2022/11/04 16:29:09;;;;;;;0.67;0.50;;;11.20;99.90;;;;;;6153887;28;20479;-60
2022/11/04 16:32:18;;;;;;;0.80;0.60;;;11.20;99.90;;;;;;6153555;28;20486;-58
2022/11/04 16:35:23;;;;;;;0.60;0.60;;;11.20;99.90;;;;;;6152739;28;20478;-59